Stephenville, Texas
Current Conditions -  °F | °C
As of 1:15 PM on Friday 24 Oct 2014 (Local Time) from KSEP Reporting Station
Clear Clear  
Wind Chill: 81°   Ceiling: Unl
Heat Index: 82°   Visibility: 10mi
Dew Point: 60°   Wind: 3mph
Humidity: 49%   Direction: 190°S
Pressure: 30.17"   Gusts: NA
Location:  32.22°N, 98.2°W
Report Text: KSEP 241815Z AUTO 19003KT 10SM CLR 27/16 A3017 RMK AO2 T02720157
Loading
Personal Weather Stations






























Interactive Weather Map
Tropical Storm Tracking
New forecast layout! Learn more

10-Day Weather Forecast

Advertisements
Track Severe Weather on mobile